createdAt,value
2018-03-22T00:00:38.774Z,22.40
2018-03-22T00:01:41.311Z,24.20
2018-03-22T00:02:43.816Z,34.35
2018-03-22T00:03:46.322Z,25.25
2018-03-22T00:04:48.843Z,20.23
2018-03-22T00:05:51.393Z,23.73
2018-03-22T00:06:53.900Z,30.27
2018-03-22T00:07:56.441Z,21.37
2018-03-22T00:08:58.973Z,21.35
2018-03-22T00:10:02.276Z,22.77
2018-03-22T00:11:04.786Z,23.00
2018-03-22T00:12:07.324Z,22.02
2018-03-22T00:13:09.844Z,20.27
2018-03-22T00:14:12.367Z,22.00
2018-03-22T00:15:14.869Z,25.50
2018-03-22T00:16:17.371Z,21.52
2018-03-22T00:17:20.638Z,20.92
2018-03-22T00:18:23.148Z,22.42
2018-03-22T00:19:25.672Z,24.12
2018-03-22T00:20:28.168Z,22.55
2018-03-22T00:21:30.673Z,23.38
2018-03-22T00:22:38.763Z,24.45
2018-03-22T00:23:41.266Z,23.55
2018-03-22T00:24:43.793Z,20.58
2018-03-22T00:25:46.293Z,31.12
2018-03-22T00:26:49.588Z,23.90
2018-03-22T00:27:52.852Z,25.00
2018-03-22T00:28:55.381Z,23.52
2018-03-22T00:29:57.908Z,20.73
2018-03-22T00:31:00.434Z,22.80
2018-03-22T00:32:02.952Z,24.35
2018-03-22T00:33:05.452Z,20.08
2018-03-22T00:34:07.939Z,29.50
2018-03-22T00:35:10.455Z,22.62
2018-03-22T00:36:12.952Z,20.88
2018-03-22T00:37:15.446Z,21.20
2018-03-22T00:38:17.949Z,22.00
2018-03-22T00:39:20.450Z,22.83
2018-03-22T00:40:23.724Z,21.25
2018-03-22T00:41:26.231Z,24.33
2018-03-22T00:42:28.726Z,19.45
2018-03-22T00:43:31.226Z,21.83
2018-03-22T00:44:33.725Z,19.62
2018-03-22T00:45:37.036Z,26.37
2018-03-22T00:46:39.531Z,22.42
2018-03-22T00:47:42.026Z,22.02
2018-03-22T00:48:44.536Z,25.42
2018-03-22T00:49:47.040Z,17.40
2018-03-22T00:50:49.569Z,21.35
2018-03-22T00:51:52.070Z,29.83
2018-03-22T00:52:54.562Z,26.40
2018-03-22T00:53:57.061Z,22.83
2018-03-22T00:54:59.571Z,18.42
2018-03-22T00:56:02.096Z,19.90
2018-03-22T00:57:04.638Z,19.52
2018-03-22T00:58:07.137Z,21.50
2018-03-22T00:59:10.428Z,25.33
2018-03-22T01:00:13.715Z,19.87
2018-03-22T01:01:16.226Z,23.77
2018-03-22T01:02:18.736Z,20.35
2018-03-22T01:03:21.231Z,20.70
2018-03-22T01:04:23.738Z,23.17
2018-03-22T01:05:26.235Z,19.58
2018-03-22T01:06:28.743Z,19.92
2018-03-22T01:07:32.013Z,25.85
2018-03-22T01:08:34.511Z,21.60
2018-03-22T01:09:37.801Z,20.67
2018-03-22T01:10:41.124Z,23.05
2018-03-22T01:11:44.367Z,27.13
2018-03-22T01:12:46.851Z,23.45
2018-03-22T01:13:50.104Z,23.25
2018-03-22T01:14:52.598Z,22.45
2018-03-22T01:15:55.093Z,22.77
2018-03-22T01:16:57.623Z,22.05
2018-03-22T01:18:00.126Z,23.00
2018-03-22T01:19:02.620Z,26.75
2018-03-22T01:20:05.132Z,24.40
2018-03-22T01:21:07.628Z,29.50
2018-03-22T01:22:10.914Z,29.33
2018-03-22T01:23:14.177Z,24.98
2018-03-22T01:24:17.596Z,21.48
2018-03-22T01:25:20.848Z,22.52
2018-03-22T01:26:23.352Z,22.37
2018-03-22T01:27:26.624Z,28.45
2018-03-22T01:28:29.127Z,21.60
2018-03-22T01:29:31.633Z,26.58
2018-03-22T01:30:36.716Z,26.20
2018-03-22T01:31:39.987Z,23.23
2018-03-22T01:32:42.529Z,24.83
2018-03-22T01:33:45.013Z,27.42
2018-03-22T01:34:47.513Z,24.85
2018-03-22T01:35:51.508Z,21.70
2018-03-22T01:36:54.800Z,20.40
2018-03-22T01:37:58.076Z,25.67
2018-03-22T01:39:00.579Z,26.95
2018-03-22T01:40:03.070Z,24.48
2018-03-22T01:41:05.571Z,22.92
2018-03-22T01:42:08.065Z,26.33
2018-03-22T01:43:11.367Z,20.98
2018-03-22T01:44:15.142Z,27.25
2018-03-22T01:45:17.637Z,30.25
2018-03-22T01:46:20.902Z,25.90
2018-03-22T01:47:23.415Z,26.35
2018-03-22T01:48:26.681Z,20.05
2018-03-22T01:49:29.948Z,24.55
2018-03-22T01:50:32.442Z,23.08
2018-03-22T01:51:35.699Z,21.75
2018-03-22T01:52:49.890Z,26.37
2018-03-22T01:53:52.402Z,27.83
2018-03-22T01:54:54.900Z,19.85
2018-03-22T01:55:57.404Z,27.58
2018-03-22T01:56:59.907Z,25.23
2018-03-22T01:58:02.425Z,29.75
2018-03-22T01:59:06.768Z,27.13
2018-03-22T02:00:09.268Z,33.45
2018-03-22T02:01:11.799Z,20.90
2018-03-22T02:02:14.284Z,26.70
2018-03-22T02:03:16.792Z,21.80
2018-03-22T02:04:19.316Z,29.40
2018-03-22T02:05:21.835Z,28.58
2018-03-22T02:06:24.331Z,27.30
2018-03-22T02:07:27.612Z,23.87
2018-03-22T02:08:30.877Z,28.35
2018-03-22T02:09:33.394Z,21.67
2018-03-22T02:10:36.652Z,26.83
2018-03-22T02:11:39.916Z,27.17
2018-03-22T02:12:42.410Z,24.58
2018-03-22T02:13:45.718Z,24.45
2018-03-22T02:14:49.871Z,28.62
2018-03-22T02:15:52.415Z,24.08
2018-03-22T02:16:54.935Z,24.98
2018-03-22T02:17:57.450Z,28.15
2018-03-22T02:18:59.997Z,24.60
2018-03-22T02:20:03.277Z,25.70
2018-03-22T02:21:06.544Z,21.30
2018-03-22T02:22:09.028Z,22.52
2018-03-22T02:23:11.538Z,24.83
2018-03-22T02:24:14.038Z,29.40
2018-03-22T02:25:16.549Z,27.87
2018-03-22T02:26:19.810Z,22.98
2018-03-22T02:27:22.306Z,32.40
2018-03-22T02:28:25.580Z,28.95
2018-03-22T02:29:28.078Z,20.65
2018-03-22T02:30:31.387Z,22.25
2018-03-22T02:31:33.881Z,22.20
2018-03-22T02:32:36.384Z,26.75
2018-03-22T02:33:38.883Z,21.85
2018-03-22T02:34:41.414Z,25.73
2018-03-22T02:35:43.933Z,25.65
2018-03-22T02:36:46.435Z,20.88
2018-03-22T02:37:48.945Z,26.95
2018-03-22T02:38:52.300Z,32.25
2018-03-22T02:39:54.861Z,32.78
2018-03-22T02:40:58.316Z,27.85
2018-03-22T02:42:01.587Z,32.95
2018-03-22T02:43:04.084Z,26.48
2018-03-22T02:44:06.592Z,23.27
2018-03-22T02:45:09.119Z,29.23
2018-03-22T02:46:11.643Z,24.08
2018-03-22T02:47:14.145Z,24.12
2018-03-22T02:48:17.468Z,25.42
2018-03-22T02:49:19.960Z,23.87
2018-03-22T02:50:23.297Z,22.87
2018-03-22T02:51:26.589Z,24.77
2018-03-22T02:52:29.875Z,24.35
2018-03-22T02:53:33.141Z,25.73
2018-03-22T02:54:35.639Z,24.67
2018-03-22T02:55:38.912Z,23.50
2018-03-22T02:56:42.172Z,26.37
2018-03-22T02:57:44.694Z,21.20
2018-03-22T02:58:47.178Z,25.95
2018-03-22T02:59:49.687Z,21.85
2018-03-22T03:00:52.210Z,25.67
2018-03-22T03:01:54.737Z,21.60
2018-03-22T03:02:57.236Z,28.08
2018-03-22T03:04:00.505Z,22.52
2018-03-22T03:05:03.799Z,23.77
2018-03-22T03:06:07.095Z,27.42
2018-03-22T03:07:10.385Z,23.67
2018-03-22T03:08:13.668Z,29.25
2018-03-22T03:09:16.929Z,25.55
2018-03-22T03:10:19.419Z,24.75
2018-03-22T03:11:22.698Z,20.90
2018-03-22T03:12:25.188Z,24.87
2018-03-22T03:13:28.456Z,25.02
2018-03-22T03:14:30.998Z,24.12
2018-03-22T03:15:33.506Z,24.23
2018-03-22T03:16:36.795Z,27.50
2018-03-22T03:17:39.307Z,21.20
2018-03-22T03:18:41.816Z,24.77
2018-03-22T03:19:44.312Z,25.80
2018-03-22T03:20:46.825Z,23.90
2018-03-22T03:21:49.344Z,25.83
2018-03-22T03:22:51.840Z,25.23
2018-03-22T03:23:54.363Z,24.48
2018-03-22T03:24:57.261Z,32.78
2018-03-22T03:25:59.776Z,25.62
2018-03-22T03:27:02.297Z,21.10
2018-03-22T03:28:04.795Z,24.85
2018-03-22T03:29:08.071Z,26.55
2018-03-22T03:30:11.353Z,26.65
2018-03-22T03:31:14.625Z,28.80
2018-03-22T03:32:17.138Z,28.17
2018-03-22T03:33:19.636Z,25.23
2018-03-22T03:34:22.142Z,29.80
2018-03-22T03:35:24.655Z,30.05
2018-03-22T03:36:27.170Z,25.23
2018-03-22T03:37:29.675Z,26.00
2018-03-22T03:38:33.723Z,25.55
2018-03-22T03:39:36.214Z,24.77
2018-03-22T03:40:38.709Z,27.10
2018-03-22T03:41:41.978Z,28.27
2018-03-22T03:42:44.496Z,25.88
2018-03-22T03:43:47.725Z,28.33
2018-03-22T03:44:50.233Z,26.37
2018-03-22T03:45:53.502Z,25.12
2018-03-22T03:46:56.028Z,26.27
2018-03-22T03:47:58.518Z,29.50
2018-03-22T03:49:01.048Z,24.80
2018-03-22T03:50:03.535Z,27.95
2018-03-22T03:51:06.026Z,27.00
2018-03-22T03:52:08.544Z,22.65
2018-03-22T03:53:11.808Z,27.33
2018-03-22T03:54:14.336Z,28.98
2018-03-22T03:55:17.101Z,25.98
2018-03-22T03:56:19.599Z,28.30
2018-03-22T03:57:22.504Z,30.30
2018-03-22T03:58:25.024Z,28.10
2018-03-22T03:59:27.536Z,32.30
2018-03-22T04:00:30.042Z,29.45
2018-03-22T04:01:33.360Z,25.45
2018-03-22T04:02:35.884Z,29.12
2018-03-22T04:03:38.392Z,29.08
2018-03-22T04:04:40.903Z,32.22
2018-03-22T04:05:43.396Z,31.40
2018-03-22T04:06:45.895Z,40.30
2018-03-22T04:07:48.398Z,29.75
2018-03-22T04:08:50.910Z,28.38
2018-03-22T04:09:53.402Z,30.30
2018-03-22T04:10:56.668Z,29.83
2018-03-22T04:11:59.175Z,32.63
2018-03-22T04:13:02.533Z,29.42
2018-03-22T04:14:05.806Z,34.78
2018-03-22T04:15:08.301Z,25.73
2018-03-22T04:16:11.565Z,34.15
2018-03-22T04:17:14.059Z,29.58
2018-03-22T04:18:17.326Z,29.85
2018-03-22T04:19:19.844Z,33.17
2018-03-22T04:20:23.517Z,32.85
2018-03-22T04:21:26.774Z,37.53
2018-03-22T04:22:29.270Z,31.15
2018-03-22T04:23:32.540Z,30.00
2018-03-22T04:24:35.050Z,35.03
2018-03-22T04:25:37.565Z,29.12
2018-03-22T04:26:40.837Z,33.03
2018-03-22T04:27:43.348Z,30.37
2018-03-22T04:28:45.845Z,33.05
2018-03-22T04:29:48.346Z,32.85
2018-03-22T04:30:50.850Z,38.75
2018-03-22T04:31:53.348Z,32.50
2018-03-22T04:32:55.835Z,29.85
2018-03-22T04:33:59.099Z,35.22
2018-03-22T04:35:01.629Z,38.80
2018-03-22T04:36:04.151Z,31.85
2018-03-22T04:37:06.701Z,28.60
2018-03-22T04:38:09.194Z,41.35
2018-03-22T04:39:11.709Z,47.42
2018-03-22T04:40:14.228Z,31.27
2018-03-22T04:41:16.739Z,37.75
2018-03-22T04:42:19.240Z,35.67
2018-03-22T04:43:21.723Z,29.83
2018-03-22T04:44:24.206Z,36.50
2018-03-22T04:45:26.706Z,38.72
2018-03-22T04:46:29.998Z,36.55
2018-03-22T04:47:32.498Z,33.30
2018-03-22T04:48:34.991Z,38.90
2018-03-22T04:49:37.486Z,35.40
2018-03-22T04:50:40.749Z,37.15
2018-03-22T04:51:43.269Z,37.75
2018-03-22T04:52:45.774Z,43.72
2018-03-22T04:53:49.023Z,37.40
2018-03-22T04:54:51.519Z,49.28
2018-03-22T04:55:54.023Z,37.35
2018-03-22T04:56:56.539Z,34.28
2018-03-22T04:57:59.023Z,35.80
2018-03-22T04:59:01.522Z,38.90
2018-03-22T05:00:04.027Z,37.90
2018-03-22T05:01:07.293Z,36.15
2018-03-22T05:02:09.844Z,37.65
2018-03-22T05:03:12.345Z,40.25
2018-03-22T05:04:14.853Z,38.33
2018-03-22T05:05:17.388Z,40.28
2018-03-22T05:06:20.647Z,43.13
2018-03-22T05:07:23.171Z,38.60
2018-03-22T05:08:25.662Z,45.70
2018-03-22T05:09:28.155Z,41.28
2018-03-22T05:10:30.656Z,40.60
2018-03-22T05:11:33.143Z,42.05
2018-03-22T05:12:36.422Z,42.08
2018-03-22T05:13:39.678Z,40.78
2018-03-22T05:14:42.175Z,47.95
2018-03-22T05:15:45.485Z,38.55
2018-03-22T05:16:48.762Z,46.53
2018-03-22T05:17:52.150Z,46.50
2018-03-22T05:18:54.648Z,45.38
2018-03-22T05:19:57.150Z,43.17
2018-03-22T05:21:00.607Z,38.65
2018-03-22T05:22:03.113Z,52.50
2018-03-22T05:23:05.641Z,39.90
2018-03-22T05:24:09.151Z,42.62
2018-03-22T05:25:11.659Z,45.25
2018-03-22T05:26:14.206Z,43.58
2018-03-22T05:27:16.710Z,44.75
2018-03-22T05:28:19.222Z,40.33
2018-03-22T05:29:21.721Z,46.72
2018-03-22T05:30:24.991Z,43.00
2018-03-22T05:31:27.485Z,42.40
2018-03-22T05:32:30.740Z,50.63
2018-03-22T05:33:33.275Z,46.17
2018-03-22T05:34:35.763Z,42.88
2018-03-22T05:35:38.266Z,39.10
2018-03-22T05:36:42.679Z,43.13
2018-03-22T05:37:45.179Z,47.75
2018-03-22T05:38:47.719Z,38.88
2018-03-22T05:39:50.260Z,37.78
2018-03-22T05:40:52.753Z,44.92
2018-03-22T05:41:55.244Z,40.28
2018-03-22T05:42:57.764Z,40.67
2018-03-22T05:44:01.132Z,41.80
2018-03-22T05:45:03.632Z,43.30
2018-03-22T05:46:06.137Z,40.50
2018-03-22T05:47:09.422Z,40.83
2018-03-22T05:48:12.706Z,40.53
2018-03-22T05:49:15.238Z,48.53
2018-03-22T05:50:17.758Z,37.35
2018-03-22T05:51:21.017Z,41.63
2018-03-22T05:52:23.515Z,41.53
2018-03-22T05:53:26.767Z,43.85
2018-03-22T05:54:30.905Z,46.35
2018-03-22T05:55:34.162Z,46.58
2018-03-22T05:56:36.672Z,42.53
2018-03-22T05:57:39.964Z,44.65
2018-03-22T05:58:42.455Z,47.20
2018-03-22T05:59:44.953Z,46.13
2018-03-22T06:00:47.454Z,41.75
2018-03-22T06:01:50.763Z,49.38
2018-03-22T06:02:53.737Z,42.47
2018-03-22T06:03:57.609Z,53.45
2018-03-22T06:05:00.126Z,44.17
2018-03-22T06:06:02.642Z,45.12
2018-03-22T06:07:05.171Z,46.05
2018-03-22T06:08:07.663Z,50.95
2018-03-22T06:09:10.214Z,43.00
2018-03-22T06:10:12.738Z,51.22
2018-03-22T06:11:15.271Z,47.20
2018-03-22T06:12:17.781Z,41.35
2018-03-22T06:13:20.292Z,44.58
2018-03-22T06:14:22.812Z,47.80
2018-03-22T06:15:25.332Z,52.17
2018-03-22T06:16:27.838Z,43.35
2018-03-22T06:17:30.337Z,47.45
2018-03-22T06:18:33.640Z,49.20
2018-03-22T06:19:36.899Z,49.50
2018-03-22T06:20:39.418Z,47.55
2018-03-22T06:21:41.917Z,45.25
2018-03-22T06:22:44.419Z,52.45
2018-03-22T06:23:46.925Z,50.25
2018-03-22T06:24:50.862Z,58.05
2018-03-22T06:25:53.367Z,47.45
2018-03-22T06:26:55.859Z,51.97
2018-03-22T06:27:59.209Z,52.72
2018-03-22T06:29:01.704Z,45.97
2018-03-22T06:30:04.204Z,47.38
2018-03-22T06:31:06.710Z,49.05
2018-03-22T06:32:09.220Z,46.08
2018-03-22T06:33:11.759Z,47.10
2018-03-22T06:34:14.287Z,47.40
2018-03-22T06:35:16.812Z,51.20
2018-03-22T06:36:19.318Z,53.40
2018-03-22T06:37:22.590Z,46.92
2018-03-22T06:38:25.125Z,46.90
2018-03-22T06:39:27.649Z,50.38
2018-03-22T06:40:31.773Z,49.63
2018-03-22T06:41:34.263Z,50.70
2018-03-22T06:42:36.777Z,52.38
2018-03-22T06:43:39.287Z,52.62
2018-03-22T06:44:41.789Z,50.25
2018-03-22T06:45:44.293Z,50.15
2018-03-22T06:46:46.797Z,53.53
2018-03-22T06:47:49.332Z,55.97
2018-03-22T06:48:51.854Z,58.72
2018-03-22T06:49:54.387Z,50.70
2018-03-22T06:50:56.902Z,51.85
2018-03-22T06:51:59.405Z,55.03
2018-03-22T06:53:01.901Z,56.25
2018-03-22T06:54:05.182Z,54.05
2018-03-22T06:55:08.526Z,49.50
2018-03-22T06:56:11.107Z,59.67
2018-03-22T06:57:13.650Z,54.63
2018-03-22T06:58:16.179Z,59.83
2018-03-22T06:59:18.706Z,54.42
2018-03-22T07:00:21.210Z,55.28
2018-03-22T07:01:23.729Z,55.33
2018-03-22T07:02:26.252Z,44.42
2018-03-22T07:03:28.776Z,51.25
2018-03-22T07:04:31.288Z,52.55
2018-03-22T07:05:33.776Z,50.90
2018-03-22T07:06:36.287Z,46.37
2018-03-22T07:07:38.802Z,43.47
2018-03-22T07:08:43.178Z,45.55
2018-03-22T07:09:45.680Z,57.53
2018-03-22T07:10:48.175Z,48.95
2018-03-22T07:11:50.672Z,47.53
2018-03-22T07:12:53.170Z,47.55
2018-03-22T07:13:55.673Z,49.35
2018-03-22T07:14:58.173Z,48.92
2018-03-22T07:16:01.476Z,46.20
2018-03-22T07:17:03.997Z,47.00
2018-03-22T07:18:06.510Z,44.17
2018-03-22T07:19:09.011Z,42.58
2018-03-22T07:20:12.713Z,45.28
2018-03-22T07:21:15.243Z,45.40
2018-03-22T07:22:18.509Z,45.00
2018-03-22T07:23:21.011Z,49.58
2018-03-22T07:24:23.531Z,45.28
2018-03-22T07:25:26.088Z,41.92
2018-03-22T07:26:28.560Z,46.50
2018-03-22T07:27:31.057Z,40.60
2018-03-22T07:28:33.550Z,44.53
2018-03-22T07:29:36.805Z,47.75
2018-03-22T07:30:39.303Z,46.35
2018-03-22T07:31:42.600Z,53.33
2018-03-22T07:32:45.875Z,46.97
2018-03-22T07:33:49.130Z,38.67
2018-03-22T07:34:51.636Z,44.20
2018-03-22T07:35:54.929Z,42.50
2018-03-22T07:36:58.198Z,40.03
2018-03-22T07:38:00.695Z,45.58
2018-03-22T07:39:03.957Z,41.35
2018-03-22T07:40:06.463Z,38.83
2018-03-22T07:41:09.729Z,38.05
2018-03-22T07:42:13.000Z,39.17
2018-03-22T07:43:21.058Z,37.35
2018-03-22T07:44:29.114Z,36.38
2018-03-22T07:45:31.622Z,41.15
2018-03-22T07:46:34.130Z,35.85
2018-03-22T07:47:36.656Z,35.13
2018-03-22T07:48:39.166Z,36.90
2018-03-22T07:49:41.661Z,34.08
2018-03-22T07:50:44.156Z,34.38
2018-03-22T07:51:46.690Z,33.20
2018-03-22T07:52:49.203Z,35.60
2018-03-22T07:53:51.692Z,33.72
2018-03-22T07:54:54.187Z,33.08
2018-03-22T07:55:56.675Z,30.73
2018-03-22T07:56:59.185Z,31.40
2018-03-22T07:58:01.730Z,31.73
2018-03-22T07:59:04.997Z,27.83
2018-03-22T08:00:07.481Z,35.28
2018-03-22T08:01:10.224Z,27.92
2018-03-22T08:02:12.783Z,35.58
2018-03-22T08:03:16.247Z,28.65
2018-03-22T08:04:18.763Z,29.35
2018-03-22T08:05:21.311Z,30.35
2018-03-22T08:06:23.824Z,27.70
2018-03-22T08:07:26.330Z,30.80
2018-03-22T08:08:29.608Z,28.38
2018-03-22T08:09:32.109Z,29.90
2018-03-22T08:10:34.607Z,30.98
2018-03-22T08:11:37.112Z,33.00
2018-03-22T08:12:40.567Z,28.58
2018-03-22T08:13:43.078Z,24.98
2018-03-22T08:14:46.383Z,28.77
2018-03-22T08:15:49.703Z,33.25
2018-03-22T08:16:52.215Z,28.65
2018-03-22T08:17:54.737Z,32.70
2018-03-22T08:18:58.173Z,29.33
2018-03-22T08:20:00.954Z,32.85
2018-03-22T08:21:04.224Z,29.27
2018-03-22T08:22:06.735Z,29.48
2018-03-22T08:23:10.036Z,28.42
2018-03-22T08:24:12.637Z,35.35
2018-03-22T08:25:15.166Z,29.48
2018-03-22T08:26:18.477Z,28.92
2018-03-22T08:27:21.727Z,26.62
2018-03-22T08:28:25.515Z,32.83
2018-03-22T08:29:28.898Z,25.00
2018-03-22T08:30:31.395Z,24.77
2018-03-22T08:31:33.970Z,27.35
2018-03-22T08:32:36.488Z,28.52
2018-03-22T08:33:38.969Z,25.77
2018-03-22T08:34:41.479Z,23.55
2018-03-22T08:35:43.985Z,28.42
2018-03-22T08:36:46.498Z,22.83
2018-03-22T08:37:48.992Z,24.73
2018-03-22T08:38:52.280Z,23.05
2018-03-22T08:39:54.810Z,25.30
2018-03-22T08:40:57.333Z,26.67
2018-03-22T08:42:00.595Z,25.33
2018-03-22T08:43:03.110Z,22.33
2018-03-22T08:44:05.632Z,24.75
2018-03-22T08:45:08.145Z,23.30
2018-03-22T08:46:10.687Z,26.55
2018-03-22T08:47:13.207Z,21.10
2018-03-22T08:48:15.744Z,28.62
2018-03-22T08:50:26.418Z,23.67
2018-03-22T08:51:29.690Z,22.05
2018-03-22T08:52:32.196Z,22.67
2018-03-22T08:53:34.711Z,21.27
2018-03-22T08:54:37.232Z,20.77
2018-03-22T08:55:39.762Z,20.23
2018-03-22T08:56:42.276Z,22.25
2018-03-22T08:57:44.794Z,24.80
2018-03-22T08:58:47.300Z,18.98
2018-03-22T08:59:50.587Z,22.98
2018-03-22T09:00:53.110Z,20.77
2018-03-22T09:01:55.626Z,23.42
2018-03-22T09:02:58.900Z,19.12
2018-03-22T09:04:01.418Z,22.42
2018-03-22T09:05:03.931Z,21.33
2018-03-22T09:06:06.452Z,23.42
2018-03-22T09:07:08.961Z,22.60
2018-03-22T09:08:11.502Z,19.23
2018-03-22T09:09:14.015Z,21.52
2018-03-22T09:10:16.659Z,21.92
2018-03-22T09:11:19.164Z,20.10
2018-03-22T09:12:21.678Z,20.00
2018-03-22T09:13:24.224Z,24.58
2018-03-22T09:14:27.502Z,19.98
2018-03-22T09:15:30.030Z,23.05
2018-03-22T09:16:32.549Z,20.60
2018-03-22T09:17:35.060Z,20.55
2018-03-22T09:18:37.572Z,22.17
2018-03-22T09:19:40.072Z,23.30
2018-03-22T09:20:43.344Z,22.02
2018-03-22T09:21:45.872Z,19.45
2018-03-22T09:22:48.388Z,19.50
2018-03-22T09:23:50.935Z,17.83
2018-03-22T09:24:53.457Z,19.20
2018-03-22T09:25:56.894Z,19.75
2018-03-22T09:27:05.307Z,21.45
2018-03-22T09:28:07.828Z,22.75
2018-03-22T09:29:10.361Z,20.90
2018-03-22T09:30:12.896Z,21.80
2018-03-22T09:31:15.428Z,24.50
2018-03-22T09:32:18.695Z,19.25
2018-03-22T09:33:21.205Z,23.25
2018-03-22T09:34:23.733Z,20.98
2018-03-22T09:35:26.256Z,20.42
2018-03-22T09:36:28.793Z,21.40
2018-03-22T09:37:32.671Z,20.33
2018-03-22T09:38:35.197Z,19.62
2018-03-22T09:39:37.708Z,19.83
2018-03-22T09:40:40.211Z,17.52
2018-03-22T09:41:43.473Z,19.95
2018-03-22T09:42:45.990Z,24.85
2018-03-22T09:43:48.492Z,17.27
2018-03-22T09:44:50.999Z,18.25
2018-03-22T09:45:53.519Z,16.77
2018-03-22T09:46:56.024Z,15.18
2018-03-22T09:47:58.540Z,15.50
2018-03-22T09:49:01.049Z,15.88
2018-03-22T09:50:03.556Z,13.80
2018-03-22T09:51:06.824Z,13.45
2018-03-22T09:52:09.351Z,14.18
2018-03-22T09:53:11.870Z,14.87
2018-03-22T09:54:14.506Z,19.77
2018-03-22T09:55:17.025Z,15.15
2018-03-22T09:56:19.594Z,14.65
2018-03-22T09:57:22.119Z,15.55
2018-03-22T09:58:24.687Z,13.57
2018-03-22T09:59:28.750Z,13.55
2018-03-22T10:00:31.257Z,16.08
2018-03-22T10:01:33.757Z,13.50
2018-03-22T10:02:36.298Z,13.40
2018-03-22T10:03:38.816Z,17.17
2018-03-22T10:04:41.333Z,12.27
2018-03-22T10:05:43.839Z,13.38
2018-03-22T10:06:46.416Z,14.38
2018-03-22T10:07:49.803Z,12.77
2018-03-22T10:08:52.825Z,14.52
2018-03-22T10:09:56.950Z,12.93
2018-03-22T10:11:00.241Z,15.05
2018-03-22T10:12:02.734Z,12.05
2018-03-22T10:13:05.241Z,13.20
2018-03-22T10:14:07.753Z,14.80
2018-03-22T10:15:11.083Z,14.20
2018-03-22T10:16:13.611Z,13.65
2018-03-22T10:17:16.897Z,15.63
2018-03-22T10:18:20.163Z,13.90
2018-03-22T10:19:22.681Z,12.75
2018-03-22T10:20:25.976Z,14.10
2018-03-22T10:21:28.475Z,13.75
2018-03-22T10:22:30.980Z,12.55
2018-03-22T10:23:34.263Z,13.55
2018-03-22T10:24:37.556Z,11.55
2018-03-22T10:25:40.832Z,13.10
2018-03-22T10:26:43.328Z,14.40
2018-03-22T10:27:45.821Z,11.93
2018-03-22T10:28:48.322Z,12.07
2018-03-22T10:29:50.841Z,11.18
2018-03-22T10:30:53.347Z,11.38
2018-03-22T10:31:55.849Z,15.20
2018-03-22T10:32:58.351Z,11.30
2018-03-22T10:34:00.839Z,11.75
2018-03-22T10:35:03.351Z,11.12
2018-03-22T10:36:05.853Z,10.18
2018-03-22T10:37:09.128Z,11.30
2018-03-22T10:38:12.424Z,11.15
2018-03-22T10:39:15.697Z,13.13
2018-03-22T10:40:18.206Z,12.48
2018-03-22T10:41:20.699Z,11.05
2018-03-22T10:42:23.217Z,10.98
2018-03-22T10:43:26.490Z,12.32
2018-03-22T10:44:28.978Z,11.02
2018-03-22T10:45:32.235Z,9.82
2018-03-22T10:46:34.754Z,12.15
2018-03-22T10:47:37.272Z,10.90
2018-03-22T10:48:39.767Z,9.00
2018-03-22T10:49:42.265Z,9.88
2018-03-22T10:50:44.776Z,11.15
2018-03-22T10:51:47.291Z,10.80
2018-03-22T10:52:49.822Z,9.65
2018-03-22T10:53:52.308Z,9.20
2018-03-22T10:54:54.817Z,11.55
2018-03-22T10:55:57.323Z,10.15
2018-03-22T10:57:00.807Z,9.88
2018-03-22T10:58:03.323Z,10.60
2018-03-22T10:59:05.814Z,13.90
2018-03-22T11:00:08.315Z,11.75
2018-03-22T11:01:16.482Z,9.98
2018-03-22T11:02:25.383Z,11.45
2018-03-22T11:03:27.895Z,11.95
2018-03-22T11:04:30.404Z,11.93
2018-03-22T11:05:32.891Z,10.98
2018-03-22T11:06:35.378Z,11.60
2018-03-22T11:07:38.647Z,9.20
2018-03-22T11:08:41.156Z,10.13
2018-03-22T11:09:43.678Z,9.80
2018-03-22T11:10:46.187Z,10.95
2018-03-22T11:11:49.440Z,9.88
2018-03-22T11:12:51.947Z,10.60
2018-03-22T11:13:55.251Z,11.48
2018-03-22T11:14:57.747Z,13.75
2018-03-22T11:16:00.274Z,13.18
2018-03-22T11:17:03.538Z,12.68
2018-03-22T11:18:06.067Z,9.88
2018-03-22T11:19:08.595Z,10.50
2018-03-22T11:20:11.899Z,11.57
2018-03-22T11:21:14.394Z,12.37
2018-03-22T11:22:17.083Z,11.73
2018-03-22T11:23:19.598Z,11.48
2018-03-22T11:24:22.858Z,16.00
2018-03-22T11:25:25.414Z,10.75
2018-03-22T11:26:28.062Z,11.60
2018-03-22T11:27:30.666Z,11.27
2018-03-22T11:28:33.145Z,12.15
2018-03-22T11:29:35.651Z,11.23
2018-03-22T11:30:38.939Z,12.55
2018-03-22T11:31:42.185Z,12.50
2018-03-22T11:32:44.704Z,12.13
2018-03-22T11:33:47.200Z,13.25
2018-03-22T11:34:49.727Z,13.45
2018-03-22T11:35:53.008Z,13.45
2018-03-22T11:36:56.331Z,12.37
2018-03-22T11:37:58.835Z,13.62
2018-03-22T11:39:01.336Z,10.82
2018-03-22T11:40:03.862Z,10.75
2018-03-22T11:41:06.366Z,13.00
2018-03-22T11:42:08.857Z,13.30
2018-03-22T11:43:12.801Z,11.75
2018-03-22T11:44:15.355Z,13.15
2018-03-22T11:45:17.899Z,11.98
2018-03-22T11:46:21.325Z,15.27
2018-03-22T11:47:24.338Z,14.35
2018-03-22T11:48:26.855Z,12.77
2018-03-22T11:49:30.124Z,19.12
2018-03-22T11:50:32.636Z,15.00
2018-03-22T11:51:35.144Z,12.95
2018-03-22T11:52:37.691Z,15.98
2018-03-22T11:53:40.288Z,16.45
2018-03-22T11:54:42.782Z,12.75
2018-03-22T11:55:45.307Z,18.23
2018-03-22T11:56:47.821Z,16.40
2018-03-22T11:57:50.329Z,18.23
2018-03-22T11:58:52.829Z,18.02
2018-03-22T11:59:55.369Z,16.83
2018-03-22T12:00:58.035Z,16.00
2018-03-22T12:02:01.417Z,16.75
2018-03-22T12:06:13.900Z,18.50
2018-03-22T12:07:18.505Z,16.55
2018-03-22T12:08:21.573Z,14.85
2018-03-22T12:09:24.094Z,17.75
2018-03-22T12:10:26.799Z,17.50
2018-03-22T12:12:36.518Z,17.37
2018-03-22T12:13:58.491Z,16.83
2018-03-22T12:15:01.795Z,16.20
2018-03-22T12:16:05.112Z,18.98
2018-03-22T12:17:07.641Z,19.62
2018-03-22T12:18:10.928Z,16.77
2018-03-22T12:19:14.190Z,16.45
2018-03-22T12:20:16.716Z,19.40
2018-03-22T12:21:19.226Z,17.52
2018-03-22T12:22:22.561Z,16.83
2018-03-22T12:23:25.881Z,22.02
2018-03-22T12:24:28.407Z,18.58
2018-03-22T12:25:34.693Z,20.35
2018-03-22T12:26:37.338Z,21.83
2018-03-22T12:27:40.639Z,21.67
2018-03-22T12:28:43.873Z,16.67
2018-03-22T12:29:53.424Z,17.27
2018-03-22T12:30:56.043Z,19.00
2018-03-22T12:31:59.503Z,15.48
2018-03-22T12:33:02.181Z,15.15
2018-03-22T12:34:08.747Z,13.88
2018-03-22T12:35:11.458Z,16.25
2018-03-22T12:36:14.031Z,19.80
2018-03-22T12:37:16.874Z,15.95
2018-03-22T12:38:20.276Z,20.15
2018-03-22T12:39:22.994Z,14.90
2018-03-22T12:40:26.342Z,13.73
2018-03-22T12:41:29.615Z,10.60
2018-03-22T12:42:32.233Z,16.37
2018-03-22T12:43:34.786Z,19.77
2018-03-22T12:44:37.435Z,14.45
2018-03-22T12:45:40.823Z,15.27
2018-03-22T12:46:43.343Z,14.23
2018-03-22T12:47:45.986Z,12.48
2018-03-22T12:48:48.743Z,14.98
2018-03-22T12:49:51.283Z,12.27
2018-03-22T12:50:53.806Z,13.30
2018-03-22T12:51:56.445Z,19.30
2018-03-22T12:52:59.018Z,14.43
2018-03-22T12:54:02.262Z,14.07
2018-03-22T12:55:05.123Z,15.02
2018-03-22T12:56:07.713Z,16.62
2018-03-22T12:57:11.819Z,13.55
2018-03-22T12:58:14.472Z,16.12
2018-03-22T12:59:17.715Z,13.70
2018-03-22T13:00:20.335Z,14.23
2018-03-22T13:01:22.876Z,16.20
2018-03-22T13:02:26.534Z,17.25
2018-03-22T13:03:29.106Z,25.10
2018-03-22T13:04:32.406Z,12.65
2018-03-22T13:05:38.910Z,19.70
2018-03-22T13:06:41.542Z,15.70
2018-03-22T13:07:44.853Z,13.73
2018-03-22T13:08:48.849Z,14.70
2018-03-22T13:09:51.419Z,13.88
2018-03-22T13:10:54.066Z,13.75
2018-03-22T13:11:57.427Z,22.62
2018-03-22T13:13:00.003Z,16.67
2018-03-22T13:14:02.616Z,17.12
2018-03-22T13:15:06.010Z,18.40
2018-03-22T13:16:09.316Z,19.83
2018-03-22T13:17:12.051Z,16.00
2018-03-22T13:18:15.671Z,13.93
2018-03-22T13:19:18.366Z,21.45
2018-03-22T13:20:20.972Z,21.25
2018-03-22T13:21:25.216Z,18.23
2018-03-22T13:22:27.766Z,16.30
2018-03-22T13:23:30.320Z,15.43
2018-03-22T13:24:33.255Z,19.12
2018-03-22T13:25:38.421Z,14.93
2018-03-22T13:26:40.954Z,12.40
2018-03-22T13:27:44.560Z,21.23
2018-03-22T13:28:48.001Z,12.85
2018-03-22T13:29:50.593Z,18.87
2018-03-22T13:30:53.105Z,22.80
2018-03-22T13:31:55.730Z,19.20
2018-03-22T13:32:58.414Z,25.45
2018-03-22T13:34:01.057Z,17.77
2018-03-22T13:35:05.295Z,16.20
2018-03-22T13:36:07.825Z,10.52